createdAt,value
2023-05-12T00:00:37.963Z,477.00
2023-05-12T00:01:37.987Z,478.00
2023-05-12T00:02:38.119Z,475.00
2023-05-12T00:03:38.156Z,475.00
2023-05-12T00:04:38.184Z,478.00
2023-05-12T00:05:38.149Z,476.00
2023-05-12T00:06:38.176Z,478.00
2023-05-12T00:07:38.187Z,479.00
2023-05-12T00:08:38.248Z,477.00
2023-05-12T00:09:38.293Z,477.00
2023-05-12T00:10:38.323Z,478.00
2023-05-12T00:11:38.310Z,478.00
2023-05-12T00:12:38.341Z,477.00
2023-05-12T00:13:38.447Z,474.00
2023-05-12T00:14:38.405Z,474.00
2023-05-12T00:15:38.450Z,472.00
2023-05-12T00:16:38.511Z,474.00
2023-05-12T00:17:38.544Z,473.00
2023-05-12T00:18:38.609Z,471.00
2023-05-12T00:19:38.566Z,472.00
2023-05-12T00:20:38.532Z,473.00
2023-05-12T00:21:38.509Z,474.00
2023-05-12T00:22:38.480Z,473.00
2023-05-12T00:23:38.454Z,471.00
2023-05-12T00:24:38.438Z,469.00
2023-05-12T00:25:38.419Z,470.00
2023-05-12T00:26:38.395Z,471.00
2023-05-12T00:27:38.353Z,473.00
2023-05-12T00:28:38.380Z,470.00
2023-05-12T00:29:38.419Z,468.00
2023-05-12T00:30:38.471Z,469.00
2023-05-12T00:31:38.541Z,468.00
2023-05-12T00:32:38.571Z,469.00
2023-05-12T00:33:38.554Z,468.00
2023-05-12T00:34:38.596Z,467.00
2023-05-12T00:35:38.632Z,469.00
2023-05-12T00:36:38.647Z,469.00
2023-05-12T00:37:38.619Z,466.00
2023-05-12T00:38:38.611Z,467.00
2023-05-12T00:39:38.564Z,468.00
2023-05-12T00:40:38.536Z,468.00
2023-05-12T00:41:38.509Z,465.00
2023-05-12T00:42:38.478Z,464.00
2023-05-12T00:43:38.465Z,461.00
2023-05-12T00:44:38.425Z,459.00
2023-05-12T00:45:38.508Z,456.00
2023-05-12T00:46:38.488Z,458.00
2023-05-12T00:47:38.641Z,460.00
2023-05-12T00:48:38.577Z,460.00
2023-05-12T00:49:38.589Z,462.00
2023-05-12T00:50:38.631Z,462.00
2023-05-12T00:51:38.670Z,462.00
2023-05-12T00:52:38.702Z,461.00
2023-05-12T00:53:49.349Z,460.00
2023-05-12T00:54:38.726Z,458.00
2023-05-12T00:55:38.707Z,456.00
2023-05-12T00:56:38.666Z,455.00
2023-05-12T00:57:38.638Z,455.00
2023-05-12T00:58:38.661Z,456.00
2023-05-12T00:59:38.607Z,456.00
2023-05-12T01:00:38.584Z,457.00
2023-05-12T01:01:38.578Z,461.00
2023-05-12T01:02:38.624Z,461.00
2023-05-12T01:03:38.605Z,461.00
2023-05-12T01:04:38.544Z,462.00
2023-05-12T01:05:38.570Z,461.00
2023-05-12T01:06:38.590Z,464.00
2023-05-12T01:07:38.632Z,463.00
2023-05-12T01:08:38.693Z,459.00
2023-05-12T01:09:38.676Z,456.00
2023-05-12T01:10:38.713Z,457.00
2023-05-12T01:11:38.732Z,457.00
2023-05-12T01:12:38.779Z,457.00
2023-05-12T01:13:38.809Z,459.00
2023-05-12T01:14:38.851Z,460.00
2023-05-12T01:15:38.826Z,460.00
2023-05-12T01:16:38.807Z,459.00
2023-05-12T01:17:39.012Z,458.00
2023-05-12T01:18:38.815Z,457.00
2023-05-12T01:19:38.713Z,457.00
2023-05-12T01:20:38.741Z,458.00
2023-05-12T01:21:38.670Z,454.00
2023-05-12T01:22:38.653Z,451.00
2023-05-12T01:23:38.611Z,450.00
2023-05-12T01:24:38.576Z,447.00
2023-05-12T01:25:38.563Z,445.00
2023-05-12T01:26:38.555Z,446.00
2023-05-12T01:27:38.528Z,448.00
2023-05-12T01:28:38.580Z,447.00
2023-05-12T01:29:38.613Z,450.00
2023-05-12T01:30:38.584Z,450.00
2023-05-12T01:31:38.710Z,448.00
2023-05-12T01:32:38.658Z,449.00
2023-05-12T01:33:38.647Z,451.00
2023-05-12T01:34:38.605Z,451.00
2023-05-12T01:35:38.619Z,450.00
2023-05-12T01:36:38.654Z,454.00
2023-05-12T01:37:38.683Z,456.00
2023-05-12T01:38:38.689Z,455.00
2023-05-12T01:39:38.693Z,455.00
2023-05-12T01:40:38.683Z,453.00
2023-05-12T01:41:38.706Z,456.00
2023-05-12T01:42:38.780Z,456.00
2023-05-12T01:43:38.703Z,458.00
2023-05-12T01:44:38.676Z,458.00
2023-05-12T01:45:38.678Z,457.00
2023-05-12T01:46:38.741Z,457.00
2023-05-12T01:47:38.736Z,456.00
2023-05-12T01:48:38.677Z,456.00
2023-05-12T01:49:38.640Z,457.00
2023-05-12T01:50:38.641Z,454.00
2023-05-12T01:51:38.666Z,454.00
2023-05-12T01:52:38.616Z,455.00
2023-05-12T01:53:38.626Z,456.00
2023-05-12T01:54:38.624Z,456.00
2023-05-12T01:55:38.596Z,456.00
2023-05-12T01:56:38.585Z,456.00
2023-05-12T01:57:38.581Z,451.00
2023-05-12T01:58:38.587Z,452.00
2023-05-12T01:59:38.543Z,450.00
2023-05-12T02:00:38.527Z,449.00
2023-05-12T02:01:38.543Z,447.00
2023-05-12T02:02:39.328Z,447.00
2023-05-12T02:03:38.594Z,447.00
2023-05-12T02:04:38.501Z,448.00
2023-05-12T02:05:38.506Z,447.00
2023-05-12T02:06:38.504Z,446.00
2023-05-12T02:07:38.492Z,451.00
2023-05-12T02:08:38.472Z,450.00
2023-05-12T02:09:38.414Z,451.00
2023-05-12T02:10:38.392Z,453.00
2023-05-12T02:11:38.358Z,453.00
2023-05-12T02:12:38.330Z,451.00
2023-05-12T02:13:38.299Z,450.00
2023-05-12T02:14:38.300Z,449.00
2023-05-12T02:15:38.253Z,448.00
2023-05-12T02:16:38.259Z,447.00
2023-05-12T02:17:38.197Z,448.00
2023-05-12T02:18:38.182Z,448.00
2023-05-12T02:19:38.131Z,448.00
2023-05-12T02:20:38.091Z,450.00
2023-05-12T02:21:38.074Z,448.00
2023-05-12T02:22:38.031Z,448.00
2023-05-12T02:23:38.034Z,447.00
2023-05-12T02:24:38.008Z,446.00
2023-05-12T02:25:37.953Z,447.00
2023-05-12T02:26:37.930Z,449.00
2023-05-12T02:27:37.881Z,448.00
2023-05-12T02:28:37.860Z,448.00
2023-05-12T02:29:37.827Z,452.00
2023-05-12T02:30:37.803Z,452.00
2023-05-12T02:31:37.791Z,452.00
2023-05-12T02:32:37.816Z,452.00
2023-05-12T02:33:37.759Z,452.00
2023-05-12T02:34:37.734Z,451.00
2023-05-12T02:35:37.735Z,452.00
2023-05-12T02:36:37.747Z,449.00
2023-05-12T02:37:37.753Z,446.00
2023-05-12T02:38:37.751Z,444.00
2023-05-12T02:39:37.734Z,446.00
2023-05-12T02:40:37.715Z,447.00
2023-05-12T02:41:37.696Z,449.00
2023-05-12T02:42:37.691Z,450.00
2023-05-12T02:43:37.664Z,451.00
2023-05-12T02:44:37.654Z,452.00
2023-05-12T02:45:37.670Z,453.00
2023-05-12T02:46:37.593Z,452.00
2023-05-12T02:47:37.703Z,451.00
2023-05-12T02:48:37.548Z,450.00
2023-05-12T02:49:37.512Z,448.00
2023-05-12T02:50:37.495Z,447.00
2023-05-12T02:51:37.483Z,446.00
2023-05-12T02:52:37.465Z,445.00
2023-05-12T02:53:37.438Z,441.00
2023-05-12T02:54:37.429Z,438.00
2023-05-12T02:55:37.419Z,435.00
2023-05-12T02:56:37.417Z,431.00
2023-05-12T02:57:37.399Z,429.00
2023-05-12T02:58:37.401Z,426.00
2023-05-12T02:59:37.390Z,423.00
2023-05-12T03:00:37.403Z,422.00
2023-05-12T03:01:37.410Z,424.00
2023-05-12T03:02:37.447Z,424.00
2023-05-12T03:03:37.562Z,422.00
2023-05-12T03:04:37.418Z,418.00
2023-05-12T03:05:37.409Z,418.00
2023-05-12T03:06:37.418Z,418.00
2023-05-12T03:07:37.430Z,417.00
2023-05-12T03:08:37.452Z,418.00
2023-05-12T03:09:37.474Z,418.00
2023-05-12T03:10:37.502Z,417.00
2023-05-12T03:11:37.538Z,416.00
2023-05-12T03:12:37.548Z,413.00
2023-05-12T03:13:37.572Z,412.00
2023-05-12T03:14:37.590Z,410.00
2023-05-12T03:15:37.614Z,410.00
2023-05-12T03:16:37.719Z,409.00
2023-05-12T03:17:37.696Z,406.00
2023-05-12T03:18:37.721Z,405.00
2023-05-12T03:19:37.741Z,405.00
2023-05-12T03:20:37.787Z,404.00
2023-05-12T03:21:37.823Z,404.00
2023-05-12T03:22:37.872Z,405.00
2023-05-12T03:23:37.896Z,405.00
2023-05-12T03:24:37.946Z,408.00
2023-05-12T03:25:37.979Z,407.00
2023-05-12T03:26:38.044Z,406.00
2023-05-12T03:27:38.047Z,406.00
2023-05-12T03:28:38.108Z,406.00
2023-05-12T03:29:38.149Z,406.00
2023-05-12T03:30:38.219Z,406.00
2023-05-12T03:31:38.290Z,409.00
2023-05-12T03:32:38.330Z,412.00
2023-05-12T03:33:38.327Z,412.00
2023-05-12T03:34:38.391Z,412.00
2023-05-12T03:35:38.435Z,410.00
2023-05-12T03:36:38.464Z,407.00
2023-05-12T03:37:38.591Z,407.00
2023-05-12T03:38:38.617Z,406.00
2023-05-12T03:39:38.602Z,406.00
2023-05-12T03:40:38.521Z,404.00
2023-05-12T03:41:38.500Z,402.00
2023-05-12T03:42:38.478Z,401.00
2023-05-12T03:43:38.446Z,401.00
2023-05-12T03:44:38.437Z,403.00
2023-05-12T03:45:38.416Z,403.00
2023-05-12T03:46:38.532Z,402.00
2023-05-12T03:47:38.455Z,400.00
2023-05-12T03:48:38.344Z,399.00
2023-05-12T03:49:38.323Z,399.00
2023-05-12T03:50:38.310Z,402.00
2023-05-12T03:51:38.316Z,404.00
2023-05-12T03:52:38.293Z,407.00
2023-05-12T03:53:38.231Z,405.00
2023-05-12T03:54:38.233Z,405.00
2023-05-12T03:55:38.204Z,405.00
2023-05-12T03:56:38.202Z,405.00
2023-05-12T03:57:38.171Z,405.00
2023-05-12T03:58:38.127Z,407.00
2023-05-12T03:59:38.147Z,407.00
2023-05-12T04:00:39.030Z,406.00
2023-05-12T04:01:38.220Z,403.00
2023-05-12T04:02:38.278Z,398.00
2023-05-12T04:03:38.157Z,396.00
2023-05-12T04:04:38.099Z,395.00
2023-05-12T04:05:38.110Z,398.00
2023-05-12T04:06:38.093Z,401.00
2023-05-12T04:07:38.045Z,400.00
2023-05-12T04:08:40.327Z,401.00
2023-05-12T04:09:38.021Z,404.00
2023-05-12T04:10:37.985Z,404.00
2023-05-12T04:11:37.981Z,404.00
2023-05-12T04:12:37.938Z,403.00
2023-05-12T04:13:37.941Z,404.00
2023-05-12T04:14:42.928Z,404.00
2023-05-12T04:15:38.876Z,403.00
2023-05-12T04:16:37.892Z,401.00
2023-05-12T04:17:37.880Z,400.00
2023-05-12T04:18:37.842Z,400.00
2023-05-12T04:19:37.815Z,400.00
2023-05-12T04:20:37.802Z,401.00
2023-05-12T04:21:37.795Z,398.00
2023-05-12T04:22:37.816Z,399.00
2023-05-12T04:23:37.767Z,399.00
2023-05-12T04:24:37.740Z,399.00
2023-05-12T04:25:37.721Z,398.00
2023-05-12T04:26:37.696Z,401.00
2023-05-12T04:27:37.667Z,397.00
2023-05-12T04:28:37.638Z,399.00
2023-05-12T04:29:37.651Z,398.00
2023-05-12T04:30:37.695Z,399.00
2023-05-12T04:31:37.749Z,402.00
2023-05-12T04:32:37.849Z,401.00
2023-05-12T04:33:37.772Z,401.00
2023-05-12T04:34:37.805Z,401.00
2023-05-12T04:35:37.812Z,402.00
2023-05-12T04:36:37.800Z,404.00
2023-05-12T04:37:37.854Z,404.00
2023-05-12T04:38:37.838Z,406.00
2023-05-12T04:39:37.867Z,403.00
2023-05-12T04:40:37.846Z,404.00
2023-05-12T04:41:37.837Z,403.00
2023-05-12T04:42:37.858Z,404.00
2023-05-12T04:44:37.922Z,400.00
2023-05-12T04:45:37.902Z,400.00
2023-05-12T04:46:37.901Z,399.00
2023-05-12T04:47:37.905Z,398.00
2023-05-12T04:48:37.873Z,399.00
2023-05-12T04:49:37.855Z,401.00
2023-05-12T04:50:37.839Z,401.00
2023-05-12T04:51:37.841Z,401.00
2023-05-12T04:52:37.829Z,402.00
2023-05-12T04:53:37.830Z,401.00
2023-05-12T04:54:37.802Z,398.00
2023-05-12T04:55:37.778Z,399.00
2023-05-12T04:56:37.775Z,398.00
2023-05-12T04:57:37.764Z,401.00
2023-05-12T04:58:37.742Z,399.00
2023-05-12T04:59:38.834Z,402.00
2023-05-12T05:00:37.738Z,402.00
2023-05-12T05:01:37.760Z,402.00
2023-05-12T05:02:37.778Z,400.00
2023-05-12T05:03:37.815Z,397.00
2023-05-12T05:04:37.705Z,397.00
2023-05-12T05:05:37.706Z,396.00
2023-05-12T05:06:37.711Z,396.00
2023-05-12T05:07:37.684Z,396.00
2023-05-12T05:08:37.705Z,397.00
2023-05-12T05:09:37.675Z,398.00
2023-05-12T05:10:37.649Z,402.00
2023-05-12T05:11:37.665Z,401.00
2023-05-12T05:12:37.686Z,401.00
2023-05-12T05:13:37.676Z,403.00
2023-05-12T05:14:37.635Z,401.00
2023-05-12T05:15:37.697Z,401.00
2023-05-12T05:16:37.642Z,400.00
2023-05-12T05:17:37.667Z,402.00
2023-05-12T05:18:37.760Z,401.00
2023-05-12T05:19:49.289Z,402.00
2023-05-12T05:20:40.770Z,400.00
2023-05-12T05:21:37.611Z,401.00
2023-05-12T05:22:37.606Z,402.00
2023-05-12T05:23:37.595Z,402.00
2023-05-12T05:24:37.602Z,403.00
2023-05-12T05:25:37.595Z,403.00
2023-05-12T05:26:37.563Z,402.00
2023-05-12T05:27:37.723Z,401.00
2023-05-12T05:28:38.296Z,400.00
2023-05-12T05:29:37.634Z,404.00
2023-05-12T05:30:37.661Z,413.00
2023-05-12T05:31:37.871Z,432.00
2023-05-12T05:32:37.825Z,550.00
2023-05-12T05:33:37.716Z,558.00
2023-05-12T05:34:37.879Z,539.00
2023-05-12T05:35:37.780Z,506.00
2023-05-12T05:36:37.790Z,491.00
2023-05-12T05:37:37.789Z,491.00
2023-05-12T05:38:37.781Z,488.00
2023-05-12T05:39:37.841Z,538.00
2023-05-12T05:40:51.601Z,560.00
2023-05-12T05:41:38.786Z,595.00
2023-05-12T05:42:37.860Z,584.00
2023-05-12T05:43:37.815Z,565.00
2023-05-12T05:44:37.810Z,545.00
2023-05-12T05:45:37.888Z,564.00
2023-05-12T05:46:37.837Z,553.00
2023-05-12T05:47:38.602Z,561.00
2023-05-12T05:48:37.754Z,609.00
2023-05-12T05:49:37.904Z,598.00
2023-05-12T05:50:37.735Z,614.00
2023-05-12T05:51:37.742Z,626.00
2023-05-12T05:52:37.892Z,638.00
2023-05-12T05:53:37.710Z,650.00
2023-05-12T05:54:37.758Z,664.00
2023-05-12T05:55:37.698Z,690.00
2023-05-12T05:56:37.850Z,708.00
2023-05-12T05:57:37.711Z,728.00
2023-05-12T05:58:37.669Z,795.00
2023-05-12T05:59:37.731Z,795.00
2023-05-12T06:00:37.662Z,802.00
2023-05-12T06:01:37.718Z,812.00
2023-05-12T06:02:37.798Z,825.00
2023-05-12T06:03:37.671Z,848.00
2023-05-12T06:04:37.651Z,866.00
2023-05-12T06:05:37.722Z,904.00
2023-05-12T06:06:37.783Z,916.00
2023-05-12T06:07:37.667Z,920.00
2023-05-12T06:08:37.712Z,930.00
2023-05-12T06:09:37.675Z,940.00
2023-05-12T06:10:37.689Z,948.00
2023-05-12T06:11:37.637Z,962.00
2023-05-12T06:12:37.631Z,984.00
2023-05-12T06:13:37.725Z,1022.00
2023-05-12T06:14:37.917Z,1033.00
2023-05-12T06:15:37.626Z,1042.00
2023-05-12T06:16:37.599Z,1048.00
2023-05-12T06:17:37.621Z,1064.00
2023-05-12T06:18:37.694Z,1079.00
2023-05-12T06:19:37.537Z,1089.00
2023-05-12T06:20:37.515Z,1102.00
2023-05-12T06:21:37.489Z,1127.00
2023-05-12T06:22:37.458Z,1135.00
2023-05-12T06:23:37.447Z,1144.00
2023-05-12T06:24:37.417Z,1154.00
2023-05-12T06:25:38.184Z,1176.00
2023-05-12T06:26:39.174Z,1201.00
2023-05-12T06:27:37.446Z,1212.00
2023-05-12T06:28:37.434Z,1224.00
2023-05-12T06:29:37.349Z,1235.00
2023-05-12T06:30:37.251Z,1243.00
2023-05-12T06:31:37.451Z,1251.00
2023-05-12T06:32:37.444Z,1259.00
2023-05-12T06:33:37.378Z,1265.00
2023-05-12T06:34:37.426Z,1269.00
2023-05-12T06:35:37.431Z,1299.00
2023-05-12T06:36:37.497Z,1293.00
2023-05-12T06:37:37.549Z,1314.00
2023-05-12T06:38:37.557Z,1326.00
2023-05-12T06:39:37.631Z,1315.00
2023-05-12T06:40:37.793Z,1305.00
2023-05-12T06:41:37.676Z,1314.00
2023-05-12T06:42:37.751Z,1385.00
2023-05-12T06:43:37.728Z,1409.00
2023-05-12T06:44:38.489Z,1458.00
2023-05-12T06:45:37.649Z,1390.00
2023-05-12T06:46:37.768Z,1413.00
2023-05-12T06:47:37.780Z,1407.00
2023-05-12T06:48:37.517Z,1408.00
2023-05-12T06:49:37.526Z,1403.00
2023-05-12T06:50:37.490Z,1398.00
2023-05-12T06:51:37.482Z,1406.00
2023-05-12T06:52:37.487Z,1453.00
2023-05-12T06:53:37.578Z,1486.00
2023-05-12T06:54:37.551Z,1499.00
2023-05-12T06:55:37.579Z,1494.00
2023-05-12T06:56:37.569Z,929.00
2023-05-12T06:57:37.806Z,786.00
2023-05-12T06:58:37.633Z,702.00
2023-05-12T06:59:37.644Z,686.00
2023-05-12T07:00:37.640Z,716.00
2023-05-12T07:01:37.745Z,819.00
2023-05-12T07:02:37.726Z,846.00
2023-05-12T07:03:37.650Z,865.00
2023-05-12T07:04:37.593Z,889.00
2023-05-12T07:05:37.720Z,929.00
2023-05-12T07:06:37.532Z,944.00
2023-05-12T07:07:37.543Z,961.00
2023-05-12T07:08:37.496Z,977.00
2023-05-12T07:09:37.452Z,989.00
2023-05-12T07:10:38.286Z,1014.00
2023-05-12T07:11:37.480Z,1030.00
2023-05-12T07:12:37.463Z,1045.00
2023-05-12T07:13:38.204Z,1060.00
2023-05-12T07:14:37.320Z,1070.00
2023-05-12T07:15:37.298Z,1079.00
2023-05-12T07:16:37.457Z,1086.00
2023-05-12T07:17:37.373Z,1098.00
2023-05-12T07:18:37.272Z,1105.00
2023-05-12T07:19:37.360Z,1132.00
2023-05-12T07:20:37.256Z,1146.00
2023-05-12T07:21:37.451Z,1158.00
2023-05-12T07:22:38.793Z,1170.00
2023-05-12T07:23:37.434Z,1184.00
2023-05-12T07:24:37.285Z,1196.00
2023-05-12T07:25:37.349Z,1200.00
2023-05-12T07:26:37.313Z,1204.00
2023-05-12T07:27:37.373Z,1208.00
2023-05-12T07:28:37.567Z,1222.00
2023-05-12T07:29:37.385Z,1260.00
2023-05-12T07:30:37.329Z,1281.00
2023-05-12T07:31:37.409Z,1287.00
2023-05-12T07:32:37.428Z,1308.00
2023-05-12T07:33:38.331Z,1307.00
2023-05-12T07:34:37.401Z,1317.00
2023-05-12T07:35:37.349Z,1325.00
2023-05-12T07:36:37.470Z,1346.00
2023-05-12T07:37:37.323Z,1384.00
2023-05-12T07:38:37.479Z,1377.00
2023-05-12T07:39:37.326Z,1376.00
2023-05-12T07:40:38.197Z,1245.00
2023-05-12T07:41:37.503Z,1147.00
2023-05-12T07:42:37.412Z,1087.00
2023-05-12T07:43:37.303Z,977.00
2023-05-12T07:44:37.387Z,827.00
2023-05-12T07:45:37.213Z,825.00
2023-05-12T07:46:37.318Z,798.00
2023-05-12T07:47:37.197Z,678.00
2023-05-12T07:48:37.133Z,616.00
2023-05-12T07:49:37.177Z,613.00
2023-05-12T07:50:37.100Z,606.00
2023-05-12T07:51:37.048Z,611.00
2023-05-12T07:52:37.058Z,603.00
2023-05-12T07:53:37.193Z,667.00
2023-05-12T07:54:37.125Z,639.00
2023-05-12T07:55:37.171Z,627.00
2023-05-12T07:56:37.117Z,573.00
2023-05-12T07:57:37.191Z,580.00
2023-05-12T07:58:37.605Z,593.00
2023-05-12T07:59:37.607Z,589.00
2023-05-12T08:00:37.062Z,533.00
2023-05-12T08:01:37.003Z,531.00
2023-05-12T08:02:37.129Z,534.00
2023-05-12T08:03:37.216Z,537.00
2023-05-12T08:04:37.099Z,557.00
2023-05-12T08:05:37.069Z,553.00
2023-05-12T08:06:36.862Z,562.00
2023-05-12T08:07:36.848Z,566.00
2023-05-12T08:08:36.810Z,541.00
2023-05-12T08:09:37.707Z,543.00
2023-05-12T08:10:36.823Z,490.00
2023-05-12T08:11:36.722Z,493.00
2023-05-12T08:12:36.729Z,489.00
2023-05-12T08:13:36.790Z,482.00
2023-05-12T08:14:36.648Z,484.00
2023-05-12T08:15:36.654Z,484.00
2023-05-12T08:16:36.633Z,543.00
2023-05-12T08:17:36.704Z,561.00
2023-05-12T08:18:36.636Z,535.00
2023-05-12T08:19:36.711Z,526.00
2023-05-12T08:20:36.491Z,455.00
2023-05-12T08:21:36.555Z,468.00
2023-05-12T08:22:36.395Z,482.00
2023-05-12T08:23:36.395Z,521.00
2023-05-12T08:24:36.396Z,560.00
2023-05-12T08:25:36.407Z,611.00
2023-05-12T08:26:36.412Z,557.00
2023-05-12T08:27:36.346Z,563.00
2023-05-12T08:28:36.294Z,548.00
2023-05-12T08:29:36.261Z,538.00
2023-05-12T08:30:36.284Z,570.00
2023-05-12T08:31:36.233Z,557.00
2023-05-12T08:32:36.225Z,547.00
2023-05-12T08:33:36.168Z,541.00
2023-05-12T08:34:36.167Z,543.00
2023-05-12T08:35:36.100Z,545.00
2023-05-12T08:36:36.067Z,551.00
2023-05-12T08:37:36.082Z,555.00
2023-05-12T08:38:36.010Z,563.00
2023-05-12T08:39:35.948Z,573.00
2023-05-12T08:40:35.921Z,575.00
2023-05-12T08:41:35.889Z,573.00
2023-05-12T08:42:35.865Z,571.00
2023-05-12T08:43:35.835Z,570.00
2023-05-12T08:44:35.808Z,565.00
2023-05-12T08:45:35.913Z,564.00
2023-05-12T08:46:35.809Z,569.00
2023-05-12T08:47:35.748Z,569.00
2023-05-12T08:48:35.708Z,569.00
2023-05-12T08:49:35.688Z,571.00
2023-05-12T08:50:35.664Z,566.00
2023-05-12T08:51:35.585Z,566.00
2023-05-12T08:52:35.621Z,563.00
2023-05-12T08:53:35.602Z,567.00
2023-05-12T08:54:42.463Z,565.00
2023-05-12T08:55:35.590Z,563.00
2023-05-12T08:57:36.423Z,565.00
2023-05-12T08:58:41.097Z,564.00
2023-05-12T08:59:36.413Z,563.00
2023-05-12T09:00:35.467Z,564.00
2023-05-12T09:01:36.751Z,564.00
2023-05-12T09:02:51.223Z,565.00
2023-05-12T09:03:36.292Z,564.00
2023-05-12T09:04:35.288Z,563.00
2023-05-12T09:05:35.237Z,565.00
2023-05-12T09:06:35.164Z,566.00
2023-05-12T09:07:35.133Z,567.00
2023-05-12T09:08:35.266Z,567.00
2023-05-12T09:09:35.098Z,565.00
2023-05-12T09:10:35.868Z,565.00
2023-05-12T09:11:35.000Z,564.00
2023-05-12T09:12:35.033Z,564.00
2023-05-12T09:13:35.108Z,561.00
2023-05-12T09:14:35.117Z,560.00
2023-05-12T09:15:35.130Z,558.00
2023-05-12T09:16:35.236Z,557.00
2023-05-12T09:17:35.243Z,558.00
2023-05-12T09:18:35.298Z,558.00
2023-05-12T09:19:35.254Z,557.00
2023-05-12T09:20:35.299Z,557.00
2023-05-12T09:21:35.338Z,557.00
2023-05-12T09:22:35.362Z,556.00
2023-05-12T09:23:35.422Z,555.00
2023-05-12T09:24:35.421Z,556.00
2023-05-12T09:25:35.452Z,556.00
2023-05-12T09:26:35.468Z,556.00
2023-05-12T09:27:35.486Z,555.00
2023-05-12T09:28:35.517Z,553.00
2023-05-12T09:29:39.872Z,551.00
2023-05-12T09:30:36.487Z,551.00
2023-05-12T09:31:35.483Z,548.00
2023-05-12T09:32:35.472Z,549.00
2023-05-12T09:33:35.450Z,549.00
2023-05-12T09:34:35.320Z,548.00
2023-05-12T09:35:35.261Z,551.00
2023-05-12T09:36:35.270Z,549.00
2023-05-12T09:37:35.203Z,550.00
2023-05-12T09:38:35.181Z,548.00
2023-05-12T09:39:35.192Z,547.00
2023-05-12T09:40:35.076Z,547.00
2023-05-12T09:41:35.259Z,549.00
2023-05-12T09:42:35.030Z,555.00
2023-05-12T09:43:35.094Z,502.00
2023-05-12T09:44:34.972Z,497.00
2023-05-12T09:45:34.994Z,514.00
2023-05-12T09:46:34.949Z,532.00
2023-05-12T09:47:34.912Z,483.00
2023-05-12T09:48:34.911Z,479.00
2023-05-12T09:49:34.837Z,458.00
2023-05-12T09:50:44.233Z,461.00
2023-05-12T09:51:35.832Z,479.00
2023-05-12T09:52:34.815Z,505.00
2023-05-12T09:53:34.792Z,534.00
2023-05-12T09:54:34.787Z,640.00
2023-05-12T09:55:34.765Z,678.00
2023-05-12T09:56:34.741Z,689.00
2023-05-12T09:57:34.680Z,701.00
2023-05-12T09:58:34.744Z,710.00
2023-05-12T09:59:34.796Z,728.00
2023-05-12T10:00:58.578Z,750.00
2023-05-12T10:01:35.620Z,773.00
2023-05-12T10:02:34.659Z,787.00
2023-05-12T10:03:34.544Z,803.00
2023-05-12T10:04:34.625Z,813.00
2023-05-12T10:05:34.562Z,820.00
2023-05-12T10:06:34.486Z,828.00
2023-05-12T10:07:34.500Z,825.00
2023-05-12T10:08:34.446Z,830.00
2023-05-12T10:09:34.410Z,831.00
2023-05-12T10:10:34.384Z,838.00
2023-05-12T10:11:34.370Z,846.00
2023-05-12T10:12:34.585Z,842.00
2023-05-12T10:13:34.506Z,743.00
2023-05-12T10:14:34.483Z,795.00
2023-05-12T10:15:34.545Z,784.00
2023-05-12T10:16:34.623Z,813.00
2023-05-12T10:17:34.619Z,811.00
2023-05-12T10:18:34.517Z,818.00
2023-05-12T10:19:34.408Z,830.00
2023-05-12T10:20:34.412Z,845.00
2023-05-12T10:21:34.333Z,858.00
2023-05-12T10:22:34.373Z,911.00
2023-05-12T10:23:36.444Z,929.00
2023-05-12T10:24:34.254Z,944.00
2023-05-12T10:25:34.176Z,959.00
2023-05-12T10:26:34.146Z,962.00
2023-05-12T10:27:34.125Z,973.00
2023-05-12T10:28:34.092Z,1035.00
2023-05-12T10:29:34.112Z,1023.00
2023-05-12T10:30:34.010Z,1017.00
2023-05-12T10:31:34.013Z,1031.00
2023-05-12T10:32:33.963Z,1047.00
2023-05-12T10:33:33.887Z,1071.00
2023-05-12T10:34:33.924Z,1095.00
2023-05-12T10:35:33.838Z,1106.00
2023-05-12T10:36:33.809Z,1116.00
2023-05-12T10:37:33.750Z,1207.00
2023-05-12T10:38:33.711Z,1229.00
2023-05-12T10:39:33.686Z,1233.00
2023-05-12T10:40:33.667Z,1225.00
2023-05-12T10:41:33.646Z,1186.00
2023-05-12T10:42:33.539Z,1201.00
2023-05-12T10:43:33.741Z,1244.00
2023-05-12T10:44:33.548Z,1254.00
2023-05-12T10:45:33.415Z,1247.00
2023-05-12T10:46:33.414Z,1170.00
2023-05-12T10:47:33.447Z,1155.00
2023-05-12T10:48:33.363Z,1140.00
2023-05-12T10:49:33.579Z,1130.00
2023-05-12T10:50:33.247Z,1057.00
2023-05-12T10:51:33.290Z,1040.00
2023-05-12T10:52:33.222Z,1035.00
2023-05-12T10:53:45.225Z,1035.00
2023-05-12T10:54:34.145Z,1017.00
2023-05-12T10:55:33.255Z,991.00
2023-05-12T10:56:33.219Z,959.00
2023-05-12T10:57:33.648Z,941.00
2023-05-12T10:58:33.267Z,920.00
2023-05-12T10:59:33.149Z,918.00
2023-05-12T11:00:33.159Z,911.00
2023-05-12T11:01:33.384Z,847.00
2023-05-12T11:02:34.600Z,844.00
2023-05-12T11:03:33.596Z,840.00
2023-05-12T11:04:33.035Z,834.00
2023-05-12T11:05:33.431Z,826.00
2023-05-12T11:06:32.870Z,818.00
2023-05-12T11:07:33.308Z,810.00
2023-05-12T11:08:32.789Z,802.00
2023-05-12T11:09:32.807Z,793.00
2023-05-12T11:10:33.537Z,780.00
2023-05-12T11:11:32.554Z,772.00
2023-05-12T11:12:32.844Z,765.00
2023-05-12T11:13:32.487Z,748.00
2023-05-12T11:14:32.444Z,725.00
2023-05-12T11:15:32.401Z,720.00
2023-05-12T11:16:32.407Z,720.00
2023-05-12T11:17:32.664Z,690.00
2023-05-12T11:18:32.465Z,672.00
2023-05-12T11:19:32.299Z,683.00
2023-05-12T11:20:32.265Z,675.00
2023-05-12T11:21:32.249Z,672.00
2023-05-12T11:22:32.216Z,664.00
2023-05-12T11:23:32.144Z,667.00
2023-05-12T11:24:32.395Z,674.00
2023-05-12T11:25:32.131Z,728.00
2023-05-12T11:26:32.039Z,749.00
2023-05-12T11:27:32.079Z,757.00
2023-05-12T11:28:32.010Z,768.00
2023-05-12T11:29:31.985Z,772.00
2023-05-12T11:30:31.928Z,767.00
2023-05-12T11:31:31.935Z,771.00
2023-05-12T11:32:31.910Z,770.00
2023-05-12T11:33:31.878Z,767.00
2023-05-12T11:34:31.820Z,764.00
2023-05-12T11:35:31.845Z,755.00
2023-05-12T11:37:50.947Z,746.00
2023-05-12T11:38:50.926Z,746.00
2023-05-12T11:39:50.921Z,750.00
2023-05-12T11:40:50.904Z,750.00
2023-05-12T11:41:52.992Z,758.00
2023-05-12T11:42:51.911Z,759.00
2023-05-12T11:43:50.881Z,762.00
2023-05-12T11:44:50.874Z,762.00
2023-05-12T11:45:50.889Z,757.00
2023-05-12T11:46:50.864Z,755.00
2023-05-12T11:47:50.845Z,756.00
2023-05-12T11:48:50.824Z,753.00
2023-05-12T11:49:50.790Z,748.00
2023-05-12T11:50:50.795Z,745.00
2023-05-12T11:51:50.769Z,745.00
2023-05-12T11:52:50.782Z,744.00
2023-05-12T11:53:50.749Z,740.00
2023-05-12T11:54:50.762Z,740.00
2023-05-12T11:55:50.756Z,738.00
2023-05-12T11:56:50.821Z,734.00
2023-05-12T11:57:50.871Z,736.00
2023-05-12T11:58:50.882Z,731.00
2023-05-12T11:59:50.921Z,730.00
2023-05-12T12:00:50.972Z,731.00
2023-05-12T12:01:51.011Z,730.00
2023-05-12T12:02:51.141Z,724.00
2023-05-12T12:03:51.245Z,718.00
2023-05-12T12:04:51.186Z,709.00
2023-05-12T12:05:51.208Z,702.00
2023-05-12T12:06:51.244Z,702.00
2023-05-12T12:07:51.295Z,695.00
2023-05-12T12:08:51.372Z,695.00
2023-05-12T12:09:51.403Z,694.00
2023-05-12T12:10:51.440Z,696.00
2023-05-12T12:11:51.481Z,696.00
2023-05-12T12:12:51.527Z,689.00
2023-05-12T12:13:51.589Z,689.00
2023-05-12T12:14:51.644Z,689.00
2023-05-12T12:15:51.702Z,684.00
2023-05-12T12:16:51.746Z,677.00
2023-05-12T12:17:51.890Z,675.00
2023-05-12T12:18:51.862Z,670.00
2023-05-12T12:19:51.841Z,669.00
2023-05-12T12:20:51.882Z,665.00
2023-05-12T12:21:51.881Z,666.00
2023-05-12T12:22:51.859Z,661.00
2023-05-12T12:23:51.943Z,660.00
2023-05-12T12:24:51.884Z,655.00
2023-05-12T12:25:51.815Z,652.00
2023-05-12T12:26:51.795Z,650.00
2023-05-12T12:27:51.788Z,646.00
2023-05-12T12:28:51.758Z,645.00